createdAt,value
2023-03-06T00:00:41.118Z,95041.41
2023-03-06T00:02:43.829Z,95090.22
2023-03-06T00:04:47.054Z,95055.53
2023-03-06T00:06:49.792Z,95079.38
2023-03-06T00:08:52.590Z,95075.09
2023-03-06T00:10:56.168Z,95061.78
2023-03-06T00:13:02.278Z,95078.56
2023-03-06T00:15:05.893Z,95034.25
2023-03-06T00:17:08.906Z,95071.66
2023-03-06T00:19:11.659Z,95064.00
2023-03-06T00:21:14.432Z,95063.53
2023-03-06T00:23:17.216Z,95026.78
2023-03-06T00:25:21.638Z,95061.34
2023-03-06T00:27:26.238Z,95060.31
2023-03-06T00:29:30.383Z,95053.38
2023-03-06T00:31:33.164Z,95054.19
2023-03-06T00:33:35.957Z,94996.16
2023-03-06T00:35:39.809Z,95054.06
2023-03-06T00:37:42.726Z,95055.91
2023-03-06T00:39:46.575Z,95055.75
2023-03-06T00:41:49.337Z,95053.56
2023-03-06T00:43:52.070Z,94994.66
2023-03-06T00:45:56.342Z,95011.63
2023-03-06T00:47:59.146Z,95052.94
2023-03-06T00:50:01.988Z,95048.97
2023-03-06T00:52:05.297Z,95037.41
2023-03-06T00:54:08.158Z,95037.56
2023-03-06T00:56:10.980Z,95034.53
2023-03-06T00:58:13.693Z,95037.31
2023-03-06T01:00:17.150Z,95022.66
2023-03-06T01:02:21.316Z,95041.69
2023-03-06T01:04:24.589Z,94959.88
2023-03-06T01:06:27.348Z,95028.47
2023-03-06T01:08:30.289Z,95007.47
2023-03-06T01:10:33.269Z,95026.75
2023-03-06T01:12:36.228Z,94952.88
2023-03-06T01:14:39.051Z,94913.84
2023-03-06T01:16:41.828Z,95021.78
2023-03-06T01:18:47.175Z,95017.59
2023-03-06T01:20:49.900Z,94993.53
2023-03-06T01:22:54.488Z,95009.53
2023-03-06T01:24:57.544Z,95022.31
2023-03-06T01:27:00.233Z,94940.25
2023-03-06T01:29:03.838Z,94941.91
2023-03-06T01:31:07.373Z,94904.94
2023-03-06T01:33:10.236Z,95005.47
2023-03-06T01:35:23.887Z,94990.28
2023-03-06T01:37:26.758Z,95001.53
2023-03-06T01:39:31.447Z,94996.94
2023-03-06T01:41:34.227Z,94992.06
2023-03-06T01:43:41.587Z,94994.78
2023-03-06T01:46:21.945Z,94981.75
2023-03-06T01:48:25.325Z,94989.84
2023-03-06T01:50:29.746Z,94969.09
2023-03-06T01:52:37.056Z,94905.22
2023-03-06T01:54:45.737Z,94971.81
2023-03-06T01:56:51.219Z,94942.16
2023-03-06T01:58:54.640Z,94962.31
2023-03-06T02:00:57.580Z,94950.88
2023-03-06T02:03:07.789Z,94945.84
2023-03-06T02:05:13.511Z,94950.03
2023-03-06T02:07:20.749Z,94947.38
2023-03-06T02:09:23.474Z,94858.53
2023-03-06T02:11:29.684Z,94953.44
2023-03-06T02:13:32.837Z,94956.09
2023-03-06T02:15:35.623Z,94942.97
2023-03-06T02:17:38.468Z,94950.03
2023-03-06T02:19:49.212Z,94912.59
2023-03-06T02:21:54.720Z,94944.44
2023-03-06T02:24:14.354Z,94944.13
2023-03-06T02:26:19.121Z,94861.91
2023-03-06T02:28:24.029Z,94932.03
2023-03-06T02:30:29.439Z,94936.81
2023-03-06T02:32:32.295Z,94919.34
2023-03-06T02:34:56.800Z,94922.63
2023-03-06T02:37:03.019Z,94886.66
2023-03-06T02:39:06.633Z,94865.09
2023-03-06T02:41:10.299Z,94919.63
2023-03-06T02:43:16.724Z,94918.09
2023-03-06T02:45:27.039Z,94886.28
2023-03-06T02:47:29.953Z,94886.78
2023-03-06T02:49:32.687Z,94917.56
2023-03-06T02:51:35.541Z,94912.13
2023-03-06T02:53:38.372Z,94847.03
2023-03-06T02:55:41.737Z,94909.47
2023-03-06T02:57:44.578Z,94906.50
2023-03-06T02:59:48.699Z,94894.09
2023-03-06T03:01:52.085Z,94834.63
2023-03-06T03:03:54.982Z,94899.19
2023-03-06T03:05:57.752Z,94904.50
2023-03-06T03:08:05.225Z,94840.66
2023-03-06T03:10:10.160Z,94901.88
2023-03-06T03:12:13.351Z,94898.09
2023-03-06T03:14:16.657Z,94890.44
2023-03-06T03:16:23.330Z,94889.34
2023-03-06T03:18:26.143Z,94900.94
2023-03-06T03:20:29.587Z,94890.50
2023-03-06T03:22:32.641Z,94848.56
2023-03-06T03:24:35.430Z,94825.19
2023-03-06T03:26:38.711Z,94892.47
2023-03-06T03:28:47.530Z,94887.78
2023-03-06T03:30:53.084Z,94898.03
2023-03-06T03:32:57.224Z,94897.22
2023-03-06T03:35:01.062Z,94891.69
2023-03-06T03:37:04.614Z,94866.53
2023-03-06T03:39:08.032Z,94874.91
2023-03-06T03:41:11.538Z,94881.84
2023-03-06T03:43:14.315Z,94885.63
2023-03-06T03:45:17.225Z,94873.72
2023-03-06T03:47:21.288Z,94848.91
2023-03-06T03:49:26.480Z,94863.91
2023-03-06T03:51:29.776Z,94856.72
2023-03-06T03:53:34.484Z,94855.50
2023-03-06T03:55:38.078Z,94871.97
2023-03-06T03:57:40.941Z,94866.66
2023-03-06T03:59:43.756Z,94842.06
2023-03-06T04:01:57.265Z,94864.94
2023-03-06T04:04:00.886Z,94861.91
2023-03-06T04:06:05.400Z,94860.94
2023-03-06T04:08:08.252Z,94860.28
2023-03-06T04:10:13.995Z,94857.50
2023-03-06T04:12:18.143Z,94851.88
2023-03-06T04:14:20.967Z,94859.34
2023-03-06T04:16:24.457Z,94834.44
2023-03-06T04:18:28.464Z,94862.59
2023-03-06T04:20:35.410Z,94856.72
2023-03-06T04:22:40.229Z,94859.84
2023-03-06T04:24:43.324Z,94846.13
2023-03-06T04:26:46.098Z,94837.75
2023-03-06T04:28:49.526Z,94844.81
2023-03-06T04:30:52.488Z,94847.56
2023-03-06T04:32:57.035Z,94838.69
2023-03-06T04:34:59.813Z,94846.19
2023-03-06T04:37:06.888Z,94841.63
2023-03-06T04:39:12.324Z,94846.00
2023-03-06T04:41:15.128Z,94849.31
2023-03-06T04:43:18.237Z,94825.50
2023-03-06T04:45:21.594Z,94844.97
2023-03-06T04:47:24.357Z,94850.44
2023-03-06T04:49:27.152Z,94847.47
2023-03-06T04:51:29.840Z,94842.16
2023-03-06T04:53:33.185Z,94842.63
2023-03-06T04:55:37.416Z,94839.38
2023-03-06T04:57:41.581Z,94840.59
2023-03-06T04:59:44.962Z,94845.97
2023-03-06T05:01:47.898Z,94836.16
2023-03-06T05:03:50.652Z,94840.88
2023-03-06T05:05:53.385Z,94846.59
2023-03-06T05:07:56.202Z,94849.75
2023-03-06T05:10:00.455Z,94847.59
2023-03-06T05:12:05.008Z,94841.66
2023-03-06T05:14:07.752Z,94839.28
2023-03-06T05:16:10.666Z,94836.94
2023-03-06T05:18:13.400Z,94836.59
2023-03-06T05:20:17.143Z,94837.22
2023-03-06T05:22:19.891Z,94844.31
2023-03-06T05:24:22.635Z,94841.38
2023-03-06T05:26:25.639Z,94803.88
2023-03-06T05:28:29.766Z,94846.72
2023-03-06T05:30:32.795Z,94836.81
2023-03-06T05:32:36.099Z,94833.78
2023-03-06T05:34:40.473Z,94805.66
2023-03-06T05:36:44.099Z,94831.78
2023-03-06T05:38:46.861Z,94809.75
2023-03-06T05:40:49.772Z,94830.88
2023-03-06T05:42:52.458Z,94826.34
2023-03-06T05:44:56.528Z,94826.94
2023-03-06T05:46:59.188Z,94819.31
2023-03-06T05:49:01.903Z,94826.94
2023-03-06T05:51:05.452Z,94820.50
2023-03-06T05:53:08.149Z,94820.03
2023-03-06T05:55:13.332Z,94824.38
2023-03-06T05:57:16.035Z,94825.00
2023-03-06T05:59:18.781Z,94831.97
2023-03-06T06:01:23.159Z,94825.06
2023-03-06T06:03:26.282Z,94833.50
2023-03-06T06:05:28.960Z,94835.34
2023-03-06T06:07:31.670Z,94803.44
2023-03-06T06:09:34.601Z,94834.03
2023-03-06T06:11:37.306Z,94813.59
2023-03-06T06:13:40.779Z,94834.84
2023-03-06T06:15:43.569Z,94823.97
2023-03-06T06:17:47.716Z,94756.34
2023-03-06T06:19:50.966Z,94821.00
2023-03-06T06:21:55.017Z,94824.22
2023-03-06T06:23:57.734Z,94828.69
2023-03-06T06:26:01.055Z,94839.25
2023-03-06T06:28:04.592Z,94829.44
2023-03-06T06:30:11.404Z,94830.94
2023-03-06T06:32:14.185Z,94841.53
2023-03-06T06:34:19.103Z,94836.31
2023-03-06T06:36:22.742Z,94838.88
2023-03-06T06:38:25.493Z,94837.91
2023-03-06T06:40:29.596Z,94849.38
2023-03-06T06:42:38.958Z,94850.34
2023-03-06T06:44:42.375Z,94824.47
2023-03-06T06:49:08.370Z,94850.00
2023-03-06T06:51:12.448Z,94844.66
2023-03-06T06:53:15.187Z,94846.94
2023-03-06T06:55:18.022Z,94839.72
2023-03-06T06:57:21.682Z,94850.59
2023-03-06T06:59:24.542Z,94847.97
2023-03-06T07:01:27.314Z,94766.81
2023-03-06T07:03:30.036Z,94859.88
2023-03-06T07:05:32.765Z,94859.31
2023-03-06T07:07:38.536Z,94856.66
2023-03-06T07:09:41.586Z,94853.69
2023-03-06T07:11:44.389Z,94859.44
2023-03-06T07:13:47.891Z,94855.41
2023-03-06T07:15:50.737Z,94854.59
2023-03-06T07:17:53.654Z,94864.63
2023-03-06T07:19:56.413Z,94835.66
2023-03-06T07:22:00.145Z,94842.94
2023-03-06T07:24:04.681Z,94866.38
2023-03-06T07:26:07.990Z,94863.63
2023-03-06T07:28:10.795Z,94872.16
2023-03-06T07:30:14.447Z,94866.38
2023-03-06T07:32:17.225Z,94872.84
2023-03-06T07:34:20.033Z,94864.44
2023-03-06T07:36:23.927Z,94867.44
2023-03-06T07:38:26.736Z,94869.72
2023-03-06T07:40:30.881Z,94859.47
2023-03-06T07:42:33.563Z,94866.41
2023-03-06T07:44:38.574Z,94870.09
2023-03-06T07:46:41.542Z,94868.13
2023-03-06T07:48:44.474Z,94872.63
2023-03-06T07:50:55.354Z,94876.44
2023-03-06T07:52:58.211Z,94874.81
2023-03-06T07:55:01.141Z,94883.59
2023-03-06T07:57:05.289Z,94877.84
2023-03-06T07:59:08.022Z,94796.69
2023-03-06T08:01:14.679Z,94874.34
2023-03-06T08:03:17.850Z,94875.72
2023-03-06T08:05:20.720Z,94879.09
2023-03-06T08:07:23.994Z,94873.28
2023-03-06T08:09:27.236Z,94818.22
2023-03-06T08:11:31.329Z,94892.72
2023-03-06T08:13:36.133Z,94871.56
2023-03-06T08:15:38.855Z,94827.75
2023-03-06T08:17:41.975Z,94862.25
2023-03-06T08:19:44.689Z,94883.22
2023-03-06T08:21:47.452Z,94874.66
2023-03-06T08:23:50.576Z,94883.78
2023-03-06T08:25:57.062Z,94880.00
2023-03-06T08:27:59.964Z,94883.53
2023-03-06T08:30:05.699Z,94884.63
2023-03-06T08:32:12.553Z,94807.31
2023-03-06T08:34:17.526Z,94884.84
2023-03-06T08:36:20.361Z,94881.63
2023-03-06T08:38:23.260Z,94859.94
2023-03-06T08:40:27.023Z,94881.50
2023-03-06T08:42:29.791Z,94877.00
2023-03-06T08:44:32.566Z,94887.16
2023-03-06T08:46:37.773Z,94880.34
2023-03-06T08:48:41.093Z,94893.41
2023-03-06T08:50:43.800Z,94886.69
2023-03-06T08:52:46.572Z,94891.31
2023-03-06T08:54:49.329Z,94882.53
2023-03-06T08:56:52.067Z,94886.13
2023-03-06T08:58:55.723Z,94887.28
2023-03-06T09:00:59.144Z,94897.56
2023-03-06T09:03:03.426Z,94894.16
2023-03-06T09:05:07.335Z,94882.81
2023-03-06T09:07:10.054Z,94882.03
2023-03-06T09:09:13.407Z,94892.63
2023-03-06T09:11:17.093Z,94888.78
2023-03-06T09:13:19.810Z,94895.81
2023-03-06T09:15:24.203Z,94898.72
2023-03-06T09:17:26.960Z,94891.97
2023-03-06T09:19:31.097Z,94903.25
2023-03-06T09:21:33.924Z,94899.41
2023-03-06T09:23:37.111Z,94901.78
2023-03-06T09:25:39.845Z,94894.78
2023-03-06T09:27:42.591Z,94898.63
2023-03-06T09:29:45.367Z,94892.38
2023-03-06T09:31:48.108Z,94896.91
2023-03-06T09:33:50.885Z,94899.97
2023-03-06T09:35:56.175Z,94908.50
2023-03-06T09:38:01.038Z,94903.88
2023-03-06T09:40:05.890Z,94875.84
2023-03-06T09:42:14.639Z,94894.53
2023-03-06T09:44:20.907Z,94901.13
2023-03-06T09:46:30.441Z,94908.00
2023-03-06T09:48:44.418Z,94900.31
2023-03-06T09:50:53.239Z,94894.16
2023-03-06T09:53:17.896Z,94843.97
2023-03-06T09:55:22.697Z,94911.84
2023-03-06T09:57:28.885Z,94909.56
2023-03-06T09:59:32.756Z,94906.56
2023-03-06T10:01:40.810Z,94917.19
2023-03-06T10:03:50.499Z,94904.13
2023-03-06T10:05:56.354Z,94906.91
2023-03-06T10:08:03.129Z,94902.63
2023-03-06T10:10:12.629Z,94897.56
2023-03-06T10:12:24.834Z,94918.78
2023-03-06T10:14:32.701Z,94927.59
2023-03-06T10:16:35.611Z,94910.97
2023-03-06T10:18:39.110Z,94915.09
2023-03-06T10:20:49.660Z,94910.38
2023-03-06T10:23:11.162Z,94906.09
2023-03-06T10:25:23.798Z,94878.50
2023-03-06T10:27:39.847Z,94918.19
2023-03-06T10:30:02.286Z,94926.44
2023-03-06T10:32:17.361Z,94928.97
2023-03-06T10:34:23.278Z,94921.81
2023-03-06T10:36:28.206Z,94926.50
2023-03-06T10:38:37.682Z,94942.00
2023-03-06T10:40:51.865Z,94932.41
2023-03-06T10:43:09.581Z,94913.00
2023-03-06T10:45:16.023Z,94926.53
2023-03-06T10:47:31.097Z,94849.59
2023-03-06T10:49:35.929Z,94912.47
2023-03-06T10:51:38.688Z,94907.16
2023-03-06T10:53:50.649Z,94903.00
2023-03-06T10:55:57.663Z,94912.47
2023-03-06T10:58:18.722Z,94916.38
2023-03-06T11:00:28.899Z,94914.16
2023-03-06T11:02:33.470Z,94903.88
2023-03-06T11:04:38.520Z,94913.69
2023-03-06T11:06:41.279Z,94906.66
2023-03-06T11:08:45.789Z,94914.28
2023-03-06T11:10:59.196Z,94873.44
2023-03-06T11:13:06.136Z,94893.97
2023-03-06T11:15:18.378Z,94906.00
2023-03-06T11:17:29.429Z,94887.50
2023-03-06T11:19:32.747Z,94901.25
2023-03-06T11:21:37.605Z,94836.81
2023-03-06T11:23:44.747Z,94870.06
2023-03-06T11:25:53.238Z,94887.13
2023-03-06T11:28:01.293Z,94890.97
2023-03-06T11:30:08.943Z,94893.78
2023-03-06T11:32:17.336Z,94890.63
2023-03-06T11:34:25.015Z,94893.16
2023-03-06T11:36:34.718Z,94890.13
2023-03-06T11:38:43.942Z,94889.94
2023-03-06T11:40:53.061Z,94889.81
2023-03-06T11:43:07.078Z,94882.59
2023-03-06T11:45:24.994Z,94878.38
2023-03-06T11:47:33.245Z,94881.38
2023-03-06T11:49:42.009Z,94813.28
2023-03-06T11:51:52.191Z,94871.31
2023-03-06T11:53:56.017Z,94872.44
2023-03-06T11:56:04.126Z,94873.09
2023-03-06T11:58:36.604Z,94877.09
2023-03-06T12:00:54.074Z,94856.91
2023-03-06T12:03:32.591Z,94873.47
2023-03-06T12:05:38.772Z,94850.84
2023-03-06T12:07:50.923Z,94852.16
2023-03-06T12:10:00.416Z,94736.75
2023-03-06T12:12:25.086Z,94838.75
2023-03-06T12:14:48.352Z,94850.16
2023-03-06T12:17:04.019Z,94847.06
2023-03-06T12:19:21.349Z,94854.25
2023-03-06T12:21:34.904Z,94849.66
2023-03-06T12:23:54.012Z,94842.06
2023-03-06T12:26:04.996Z,94849.31
2023-03-06T12:28:35.652Z,94844.44
2023-03-06T12:30:52.900Z,94837.00
2023-03-06T12:33:10.673Z,94845.06
2023-03-06T12:35:29.775Z,94838.38
2023-03-06T12:37:45.355Z,94835.94
2023-03-06T12:39:58.873Z,94838.69
2023-03-06T12:42:22.862Z,94839.09
2023-03-06T12:44:51.837Z,94838.84
2023-03-06T12:46:58.832Z,94835.13
2023-03-06T12:49:12.349Z,94836.75
2023-03-06T12:51:20.361Z,94824.72
2023-03-06T12:53:28.415Z,94827.63
2023-03-06T12:55:39.682Z,94822.06
2023-03-06T12:57:42.852Z,94816.91
2023-03-06T12:59:47.874Z,94786.25
2023-03-06T13:02:25.216Z,94829.72
2023-03-06T13:05:01.164Z,94797.19
2023-03-06T13:07:27.844Z,94822.53
2023-03-06T13:09:37.706Z,94812.59
2023-03-06T13:12:10.754Z,94810.06
2023-03-06T13:14:24.649Z,94831.41
2023-03-06T13:16:31.698Z,94830.09
2023-03-06T13:19:05.166Z,94825.59
2023-03-06T13:21:46.219Z,94820.50
2023-03-06T13:23:53.265Z,94816.69
2023-03-06T13:25:57.985Z,94824.38
2023-03-06T13:28:03.791Z,94822.88
2023-03-06T13:30:23.136Z,94822.22
2023-03-06T13:32:35.061Z,94823.13
2023-03-06T13:34:39.417Z,94827.31
2023-03-06T13:36:43.473Z,94815.69
2023-03-06T13:39:01.078Z,94819.31
2023-03-06T13:41:44.088Z,94819.78
2023-03-06T13:43:47.239Z,94827.72
2023-03-06T13:45:51.352Z,94822.78
2023-03-06T13:48:33.689Z,94739.41
2023-03-06T13:50:32.589Z,94824.00
2023-03-06T13:52:46.427Z,94823.50
2023-03-06T13:54:59.531Z,94816.50
2023-03-06T13:57:21.913Z,94808.75
2023-03-06T13:59:56.967Z,94816.91
2023-03-06T14:02:23.758Z,94671.53
2023-03-06T14:04:39.508Z,94814.31
2023-03-06T14:06:51.233Z,94815.78
2023-03-06T14:08:55.838Z,94815.13
2023-03-06T14:11:04.820Z,94821.69
2023-03-06T14:13:15.865Z,94808.63
2023-03-06T14:15:21.563Z,94751.34
2023-03-06T14:17:30.577Z,94704.59
2023-03-06T14:19:38.246Z,94822.06
2023-03-06T14:21:48.656Z,94810.75
2023-03-06T14:24:01.019Z,94811.38
2023-03-06T14:26:08.741Z,94810.13
2023-03-06T14:28:22.998Z,94819.81
2023-03-06T14:30:26.722Z,94767.94
2023-03-06T14:32:30.203Z,94807.94
2023-03-06T14:34:40.893Z,94801.88
2023-03-06T14:36:45.789Z,94802.63
2023-03-06T14:38:52.340Z,94811.69
2023-03-06T14:40:58.364Z,94704.50
2023-03-06T14:43:22.390Z,94800.78
2023-03-06T14:45:25.167Z,94743.09
2023-03-06T14:47:30.141Z,94795.16
2023-03-06T14:49:32.909Z,94815.97
2023-03-06T14:51:41.314Z,94812.44
2023-03-06T14:53:45.666Z,94812.88
2023-03-06T14:55:51.654Z,94779.69
2023-03-06T14:57:59.144Z,94808.63
2023-03-06T15:00:02.194Z,94777.94
2023-03-06T15:02:09.650Z,94806.94
2023-03-06T15:04:25.734Z,94809.94
2023-03-06T15:06:34.355Z,94817.91
2023-03-06T15:08:40.393Z,94809.13
2023-03-06T15:10:54.828Z,94784.81
2023-03-06T15:13:09.302Z,94819.19
2023-03-06T15:15:32.788Z,94819.53
2023-03-06T15:17:41.116Z,94817.69
2023-03-06T15:19:44.357Z,94811.22
2023-03-06T15:21:48.884Z,94808.78
2023-03-06T15:23:53.500Z,94812.84
2023-03-06T15:25:58.323Z,94798.88
2023-03-06T15:28:05.951Z,94810.50
2023-03-06T15:30:14.229Z,94812.13
2023-03-06T15:32:32.092Z,94787.69
2023-03-06T15:34:34.943Z,94802.19
2023-03-06T15:36:39.275Z,94789.88
2023-03-06T15:38:44.224Z,94800.69
2023-03-06T15:40:56.038Z,94792.88
2023-03-06T15:42:59.612Z,94798.72
2023-03-06T15:45:13.545Z,94798.63
2023-03-06T15:47:16.280Z,94753.78
2023-03-06T15:49:19.546Z,94785.16
2023-03-06T15:51:22.389Z,94801.53
2023-03-06T15:53:26.438Z,94721.72
2023-03-06T15:55:29.278Z,94796.09
2023-03-06T15:57:32.396Z,94792.59
2023-03-06T15:59:39.486Z,94796.13
2023-03-06T16:01:43.973Z,94804.84
2023-03-06T16:03:46.892Z,94810.66
2023-03-06T16:05:49.710Z,94739.94
2023-03-06T16:07:52.789Z,94797.03
2023-03-06T16:09:55.520Z,94802.09
2023-03-06T16:11:58.288Z,94791.84
2023-03-06T16:14:02.164Z,94790.91
2023-03-06T16:16:05.184Z,94795.31
2023-03-06T16:18:11.852Z,94794.66
2023-03-06T16:20:17.477Z,94807.88
2023-03-06T16:22:20.183Z,94805.22
2023-03-06T16:24:22.989Z,94801.06
2023-03-06T16:26:31.056Z,94800.25
2023-03-06T16:28:33.951Z,94805.34
2023-03-06T16:30:38.296Z,94711.75
2023-03-06T16:32:41.841Z,94801.19
2023-03-06T16:34:46.084Z,94809.25
2023-03-06T16:36:49.959Z,94767.28
2023-03-06T16:38:52.744Z,94808.78
2023-03-06T16:40:55.452Z,94810.38
2023-03-06T16:42:58.198Z,94810.72
2023-03-06T16:45:00.968Z,94805.41
2023-03-06T16:47:04.132Z,94814.97
2023-03-06T16:49:07.115Z,94814.78
2023-03-06T16:51:14.523Z,94808.88
2023-03-06T16:53:18.394Z,94803.59
2023-03-06T16:55:21.645Z,94728.72
2023-03-06T16:57:24.614Z,94805.69
2023-03-06T16:59:27.321Z,94814.56
2023-03-06T17:01:30.075Z,94819.63
2023-03-06T17:03:33.080Z,94815.81
2023-03-06T17:05:37.342Z,94833.16
2023-03-06T17:07:41.528Z,94822.25
2023-03-06T17:09:44.281Z,94827.25
2023-03-06T17:11:47.017Z,94828.50
2023-03-06T17:13:50.090Z,94834.81
2023-03-06T17:15:56.747Z,94751.53
2023-03-06T17:17:59.545Z,94814.22
2023-03-06T17:20:02.369Z,94827.50
2023-03-06T17:22:05.170Z,94827.50
2023-03-06T17:24:09.863Z,94774.69
2023-03-06T17:26:14.672Z,94375.81
2023-03-06T17:28:17.399Z,94832.78
2023-03-06T17:30:20.219Z,94831.53
2023-03-06T17:32:23.074Z,94836.38
2023-03-06T17:34:25.845Z,94817.56
2023-03-06T17:36:29.573Z,94818.50
2023-03-06T17:38:32.359Z,94835.00
2023-03-06T17:40:36.433Z,94835.22
2023-03-06T17:42:39.218Z,94837.31
2023-03-06T17:44:42.110Z,94838.69
2023-03-06T17:46:45.125Z,94837.31
2023-03-06T17:48:48.216Z,94835.47
2023-03-06T17:50:54.533Z,94838.81
2023-03-06T17:52:58.657Z,94817.81
2023-03-06T17:55:01.382Z,94837.78
2023-03-06T17:57:05.840Z,94845.38
2023-03-06T17:59:08.612Z,94840.78
2023-03-06T18:01:12.292Z,94841.22
2023-03-06T18:03:15.110Z,94761.91
2023-03-06T18:05:20.478Z,94849.31
2023-03-06T18:07:23.263Z,94849.53
2023-03-06T18:09:26.471Z,94853.94
2023-03-06T18:11:29.532Z,94849.88
2023-03-06T18:13:38.448Z,94834.06
2023-03-06T18:15:42.207Z,94850.94
2023-03-06T18:17:45.133Z,94828.31
2023-03-06T18:19:49.742Z,94774.44
2023-03-06T18:21:52.432Z,94821.25
2023-03-06T18:23:55.549Z,94549.44
2023-03-06T18:26:09.901Z,94869.03
2023-03-06T18:28:12.841Z,94856.47
2023-03-06T18:30:17.650Z,94543.34
2023-03-06T18:32:20.489Z,94862.13
2023-03-06T18:34:23.463Z,94812.50
2023-03-06T18:36:28.516Z,94874.41
2023-03-06T18:38:32.005Z,94845.47
2023-03-06T18:40:34.920Z,94870.38
2023-03-06T18:42:37.648Z,94873.69
2023-03-06T18:44:40.535Z,94791.38
2023-03-06T18:46:45.295Z,94870.44
2023-03-06T18:48:48.230Z,94863.16
2023-03-06T18:50:51.726Z,94762.34
2023-03-06T18:52:54.552Z,94809.53
2023-03-06T18:54:57.722Z,94854.13
2023-03-06T18:57:07.869Z,94793.56
2023-03-06T18:59:14.518Z,94808.63
2023-03-06T19:01:17.538Z,94865.41
2023-03-06T19:03:21.895Z,94866.16
2023-03-06T19:05:25.339Z,94785.63
2023-03-06T19:07:28.219Z,94732.25
2023-03-06T19:09:31.070Z,94884.09
2023-03-06T19:11:34.786Z,94825.19
2023-03-06T19:13:38.082Z,94853.00
2023-03-06T19:15:43.620Z,94868.47
2023-03-06T19:17:49.745Z,94866.22
2023-03-06T19:19:55.031Z,94851.38
2023-03-06T19:21:59.358Z,94856.22
2023-03-06T19:24:03.205Z,94798.59
2023-03-06T19:26:07.429Z,94737.31
2023-03-06T19:28:10.198Z,94774.22
2023-03-06T19:30:14.493Z,94820.22
2023-03-06T19:32:17.416Z,94666.72
2023-03-06T19:34:20.420Z,94746.56
2023-03-06T19:36:27.583Z,94862.91
2023-03-06T19:38:30.511Z,94854.38
2023-03-06T19:40:34.071Z,94729.03
2023-03-06T19:42:37.260Z,94858.78
2023-03-06T19:44:40.216Z,94851.84
2023-03-06T19:46:43.534Z,94853.94
2023-03-06T19:48:46.763Z,94823.91
2023-03-06T19:50:49.743Z,94853.56
2023-03-06T19:52:59.178Z,94776.88
2023-03-06T19:55:01.988Z,94844.47
2023-03-06T19:57:04.876Z,94855.31
2023-03-06T19:59:07.752Z,94855.53
2023-03-06T20:01:13.477Z,94842.03
2023-03-06T20:03:16.248Z,94841.81
2023-03-06T20:05:19.240Z,94834.06
2023-03-06T20:07:22.387Z,94847.00
2023-03-06T20:09:26.413Z,94845.50
2023-03-06T20:11:30.905Z,94842.28
2023-03-06T20:13:33.826Z,94839.16
2023-03-06T20:15:36.818Z,94838.34
2023-03-06T20:17:40.753Z,94837.75
2023-03-06T20:19:44.227Z,94805.91
2023-03-06T20:21:46.967Z,94839.72
2023-03-06T20:23:51.001Z,94837.06
2023-03-06T20:25:55.263Z,94837.06
2023-03-06T20:27:58.034Z,94834.41
2023-03-06T20:30:00.801Z,94841.00
2023-03-06T20:32:03.635Z,94787.53
2023-03-06T20:34:06.668Z,94839.03
2023-03-06T20:36:13.179Z,94816.53
2023-03-06T20:38:16.753Z,94781.66
2023-03-06T20:40:19.639Z,94838.47
2023-03-06T20:42:23.729Z,94739.44
2023-03-06T20:44:27.287Z,94830.03
2023-03-06T20:46:30.904Z,94821.16
2023-03-06T20:48:33.700Z,94835.22
2023-03-06T20:50:36.392Z,94688.22
2023-03-06T20:52:39.135Z,94827.25
2023-03-06T20:54:41.891Z,94828.75
2023-03-06T20:56:48.866Z,94618.47
2023-03-06T20:58:53.617Z,94790.00
2023-03-06T21:00:56.549Z,94829.34
2023-03-06T21:02:59.274Z,94835.81
2023-03-06T21:05:02.777Z,94827.50
2023-03-06T21:07:05.512Z,94816.53
2023-03-06T21:09:08.239Z,94816.75
2023-03-06T21:11:11.083Z,94802.09
2023-03-06T21:13:14.454Z,94818.16
2023-03-06T21:15:19.527Z,94790.22
2023-03-06T21:17:22.364Z,94692.16
2023-03-06T21:19:25.266Z,94815.50
2023-03-06T21:21:30.900Z,94807.53
2023-03-06T21:23:33.633Z,94803.72
2023-03-06T21:25:36.349Z,94803.03
2023-03-06T21:27:39.103Z,94804.88
2023-03-06T21:29:41.789Z,94474.59
2023-03-06T21:31:45.932Z,94791.38
2023-03-06T21:33:49.604Z,94800.16
2023-03-06T21:35:52.851Z,94780.78
2023-03-06T21:37:55.639Z,94746.94
2023-03-06T21:40:00.027Z,94697.47
2023-03-06T21:42:02.801Z,94777.41
2023-03-06T21:44:06.918Z,94799.34
2023-03-06T21:46:09.983Z,94756.41
2023-03-06T21:48:14.692Z,94722.25
2023-03-06T21:50:17.990Z,94798.53
2023-03-06T21:52:20.741Z,94785.28
2023-03-06T21:54:24.246Z,94794.16
2023-03-06T21:56:28.399Z,94787.13
2023-03-06T21:58:31.915Z,94794.16
2023-03-06T22:00:36.208Z,94784.00
2023-03-06T22:02:39.623Z,94782.28
2023-03-06T22:04:44.243Z,94701.28
2023-03-06T22:06:47.036Z,94690.19
2023-03-06T22:08:49.813Z,94778.69
2023-03-06T22:10:52.670Z,94781.69
2023-03-06T22:12:55.404Z,94777.06
2023-03-06T22:14:58.166Z,94773.84
2023-03-06T22:17:01.398Z,94674.41
2023-03-06T22:19:04.261Z,94765.53
2023-03-06T22:21:09.813Z,94742.09
2023-03-06T22:23:12.668Z,94766.34
2023-03-06T22:25:15.570Z,94765.19
2023-03-06T22:27:18.339Z,94770.28
2023-03-06T22:29:21.141Z,94747.41
2023-03-06T22:31:25.389Z,94772.47
2023-03-06T22:33:28.190Z,94771.53
2023-03-06T22:35:31.140Z,94766.78
2023-03-06T22:37:35.278Z,94775.34
2023-03-06T22:39:38.099Z,94761.28
2023-03-06T22:41:41.844Z,94769.47
2023-03-06T22:43:44.818Z,94780.19
2023-03-06T22:45:47.574Z,94776.72
2023-03-06T22:47:53.381Z,94761.63
2023-03-06T22:49:57.929Z,94746.00
2023-03-06T22:52:00.750Z,94768.44
2023-03-06T22:54:05.148Z,94771.09
2023-03-06T22:56:10.829Z,94721.09
2023-03-06T22:58:13.577Z,94769.47
2023-03-06T23:00:16.964Z,94757.25
2023-03-06T23:02:20.022Z,94682.69
2023-03-06T23:04:22.837Z,94727.44
2023-03-06T23:06:27.965Z,94759.06
2023-03-06T23:08:30.779Z,94756.41
2023-03-06T23:10:38.018Z,94756.84
2023-03-06T23:12:59.714Z,94750.16
2023-03-06T23:15:21.084Z,94745.66
2023-03-06T23:17:42.438Z,94744.28
2023-03-06T23:20:09.909Z,94747.06
2023-03-06T23:22:31.260Z,94740.59
2023-03-06T23:24:52.340Z,94583.78
2023-03-06T23:26:56.486Z,94738.50
2023-03-06T23:28:59.355Z,94302.38
2023-03-06T23:31:06.744Z,94732.63
2023-03-06T23:33:10.385Z,94725.81
2023-03-06T23:35:13.770Z,94735.59
2023-03-06T23:37:16.595Z,94737.19
2023-03-06T23:39:20.018Z,94733.75
2023-03-06T23:41:23.594Z,94718.94
2023-03-06T23:43:28.524Z,94738.22
2023-03-06T23:45:31.543Z,94729.59
2023-03-06T23:47:34.863Z,94721.06
2023-03-06T23:49:37.683Z,94695.34
2023-03-06T23:51:40.444Z,94728.09
2023-03-06T23:53:43.641Z,94728.09
2023-03-06T23:55:48.028Z,94722.88
2023-03-06T23:57:50.820Z,94728.19
2023-03-06T23:59:54.900Z,94709.28
